createdAt,value
2019-04-28T00:02:02.141Z,50.40
2019-04-28T00:04:31.583Z,50.40
2019-04-28T00:07:01.780Z,50.40
2019-04-28T00:09:31.426Z,50.30
2019-04-28T00:12:01.698Z,50.40
2019-04-28T00:14:31.746Z,50.40
2019-04-28T00:17:01.095Z,50.30
2019-04-28T00:19:31.002Z,50.50
2019-04-28T00:22:01.566Z,50.40
2019-04-28T00:24:32.062Z,50.30
2019-04-28T00:27:02.146Z,50.40
2019-04-28T00:29:38.600Z,50.40
2019-04-28T00:32:01.223Z,50.40
2019-04-28T00:34:31.119Z,50.40
2019-04-28T00:37:01.653Z,50.50
2019-04-28T00:39:31.060Z,50.40
2019-04-28T00:42:03.072Z,50.50
2019-04-28T00:44:31.426Z,50.40
2019-04-28T00:47:01.140Z,50.40
2019-04-28T00:49:47.777Z,50.40
2019-04-28T00:52:18.526Z,50.40
2019-04-28T00:54:47.982Z,50.40
2019-04-28T00:57:16.683Z,50.40
2019-04-28T00:59:53.990Z,50.40
2019-04-28T01:02:17.041Z,50.10
2019-04-28T01:04:45.475Z,50.40
2019-04-28T01:07:13.970Z,50.50
2019-04-28T01:09:42.404Z,50.50
2019-04-28T01:12:11.255Z,50.50
2019-04-28T01:14:40.957Z,50.40
2019-04-28T01:17:11.865Z,50.40
2019-04-28T01:19:51.400Z,50.50
2019-04-28T01:22:20.209Z,50.40
2019-04-28T01:24:49.738Z,50.50
2019-04-28T01:27:32.127Z,50.50
2019-04-28T01:30:08.317Z,50.50
2019-04-28T01:32:33.989Z,50.50
2019-04-28T01:35:02.730Z,50.60
2019-04-28T01:37:31.169Z,50.60
2019-04-28T01:39:59.755Z,50.50
2019-04-28T01:42:30.261Z,50.50
2019-04-28T01:45:00.658Z,50.50
2019-04-28T01:47:30.539Z,50.40
2019-04-28T01:50:00.192Z,50.50
2019-04-28T01:52:30.351Z,50.50
2019-04-28T01:55:00.451Z,51.10
2019-04-28T01:57:30.080Z,50.60
2019-04-28T01:59:59.794Z,50.60
2019-04-28T02:02:30.112Z,50.60
2019-04-28T02:04:59.850Z,50.60
2019-04-28T02:07:30.605Z,50.60
2019-04-28T02:10:00.550Z,50.50
2019-04-28T02:12:30.467Z,50.60
2019-04-28T02:15:00.966Z,50.50
2019-04-28T02:17:30.437Z,50.50
2019-04-28T02:20:00.751Z,50.60
2019-04-28T02:22:47.556Z,50.50
2019-04-28T02:25:16.019Z,50.50
2019-04-28T02:27:44.466Z,50.60
2019-04-28T02:30:13.443Z,50.60
2019-04-28T02:32:42.997Z,50.70
2019-04-28T02:35:11.900Z,50.60
2019-04-28T02:37:40.838Z,50.60
2019-04-28T02:40:10.796Z,50.70
2019-04-28T02:42:40.909Z,50.60
2019-04-28T02:45:11.558Z,50.60
2019-04-28T02:47:41.994Z,50.60
2019-04-28T02:50:30.453Z,50.70
2019-04-28T02:53:05.678Z,50.60
2019-04-28T02:55:34.180Z,50.60
2019-04-28T02:58:02.628Z,50.60
2019-04-28T03:00:31.955Z,50.70
2019-04-28T03:03:01.354Z,50.70
2019-04-28T03:05:33.330Z,50.70
2019-04-28T03:08:01.260Z,50.70
2019-04-28T03:10:31.150Z,50.70
2019-04-28T03:13:01.367Z,50.70
2019-04-28T03:15:30.718Z,50.60
2019-04-28T03:18:01.673Z,50.60
2019-04-28T03:20:30.710Z,50.70
2019-04-28T03:23:01.073Z,50.70
2019-04-28T03:25:40.714Z,50.70
2019-04-28T03:28:14.045Z,50.70
2019-04-28T03:30:53.972Z,50.70
2019-04-28T03:33:25.292Z,50.70
2019-04-28T03:35:53.825Z,50.60
2019-04-28T03:38:22.693Z,50.70
2019-04-28T03:40:51.448Z,50.70
2019-04-28T03:43:21.181Z,50.70
2019-04-28T03:45:54.076Z,50.60
2019-04-28T03:48:22.678Z,50.80
2019-04-28T03:50:51.522Z,50.60
2019-04-28T03:53:20.796Z,50.70
2019-04-28T03:55:51.250Z,50.80
2019-04-28T03:58:23.589Z,50.80
2019-04-28T04:00:50.780Z,50.80
2019-04-28T04:03:21.037Z,50.80
2019-04-28T04:05:50.822Z,50.70
2019-04-28T04:08:20.844Z,50.80
2019-04-28T04:11:00.639Z,50.70
2019-04-28T04:13:33.058Z,50.70
2019-04-28T04:16:02.517Z,50.70
2019-04-28T04:18:47.490Z,50.80
2019-04-28T04:21:16.075Z,50.70
2019-04-28T04:23:44.676Z,50.70
2019-04-28T04:26:13.135Z,50.80
2019-04-28T04:28:41.994Z,50.80
2019-04-28T04:31:10.684Z,50.80
2019-04-28T04:33:41.085Z,50.90
2019-04-28T04:36:11.575Z,50.80
2019-04-28T04:38:43.311Z,50.80
2019-04-28T04:41:11.152Z,50.80
2019-04-28T04:43:41.601Z,50.80
2019-04-28T04:46:15.561Z,50.80
2019-04-28T04:48:45.468Z,50.90
2019-04-28T04:51:14.555Z,50.80
2019-04-28T04:53:43.611Z,50.80
2019-04-28T04:56:12.116Z,50.80
2019-04-28T04:58:40.887Z,50.80
2019-04-28T05:01:11.588Z,50.70
2019-04-28T05:03:41.670Z,50.90
2019-04-28T05:06:29.684Z,50.80
2019-04-28T05:08:59.872Z,50.90
2019-04-28T05:11:29.963Z,50.90
2019-04-28T05:13:59.724Z,50.80
2019-04-28T05:16:29.775Z,50.80
2019-04-28T05:19:00.115Z,51.00
2019-04-28T05:21:33.218Z,51.10
2019-04-28T05:24:19.982Z,50.90
2019-04-28T05:26:51.581Z,51.00
2019-04-28T05:29:26.411Z,50.90
2019-04-28T05:31:54.871Z,50.90
2019-04-28T05:34:24.121Z,51.00
2019-04-28T05:36:51.758Z,51.50
2019-04-28T05:39:20.183Z,51.10
2019-04-28T05:41:50.459Z,51.00
2019-04-28T05:44:20.141Z,51.00
2019-04-28T05:46:50.563Z,51.10
2019-04-28T05:49:21.430Z,51.10
2019-04-28T05:51:51.811Z,50.90
2019-04-28T05:54:46.762Z,51.00
2019-04-28T05:57:16.833Z,51.00
2019-04-28T05:59:50.592Z,51.00
2019-04-28T06:02:21.760Z,51.00
2019-04-28T06:04:50.663Z,50.80
2019-04-28T06:07:23.581Z,51.10
2019-04-28T06:09:53.877Z,51.00
2019-04-28T06:12:22.541Z,50.80
2019-04-28T06:14:51.256Z,51.10
2019-04-28T06:17:20.650Z,51.10
2019-04-28T06:19:50.454Z,51.10
2019-04-28T06:22:19.339Z,51.00
2019-04-28T06:24:47.894Z,51.00
2019-04-28T06:27:16.330Z,51.00
2019-04-28T06:29:44.784Z,51.00
2019-04-28T06:32:13.297Z,51.70
2019-04-28T06:34:41.781Z,51.00
2019-04-28T06:37:10.287Z,51.10
2019-04-28T06:39:38.774Z,50.90
2019-04-28T06:42:07.284Z,50.90
2019-04-28T06:44:35.714Z,50.80
2019-04-28T06:47:04.393Z,51.00
2019-04-28T06:49:32.912Z,50.90
2019-04-28T06:52:01.965Z,51.00
2019-04-28T06:54:30.663Z,51.00
2019-04-28T06:56:59.106Z,51.10
2019-04-28T06:59:27.590Z,51.10
2019-04-28T07:01:56.314Z,51.00
2019-04-28T07:04:24.747Z,51.00
2019-04-28T07:06:53.206Z,51.20
2019-04-28T07:09:22.185Z,51.10
2019-04-28T07:11:50.821Z,51.10
2019-04-28T07:14:19.255Z,51.20
2019-04-28T07:16:47.960Z,51.20
2019-04-28T07:19:16.489Z,51.20
2019-04-28T07:21:52.812Z,51.40
2019-04-28T07:24:21.322Z,51.40
2019-04-28T07:26:49.755Z,51.30
2019-04-28T07:29:18.238Z,51.30
2019-04-28T07:31:46.665Z,51.20
2019-04-28T07:34:15.116Z,51.30
2019-04-28T07:36:43.669Z,51.20
2019-04-28T07:39:12.110Z,51.30
2019-04-28T07:41:40.782Z,51.20
2019-04-28T07:44:09.504Z,51.20
2019-04-28T07:46:37.946Z,51.10
2019-04-28T07:49:06.391Z,51.50
2019-04-28T07:51:42.611Z,51.40
2019-04-28T07:54:12.682Z,51.50
2019-04-28T07:56:41.271Z,51.80
2019-04-28T07:59:09.766Z,51.50
2019-04-28T08:01:41.339Z,51.40
2019-04-28T08:04:09.779Z,51.30
2019-04-28T08:06:38.518Z,51.40
2019-04-28T08:09:09.084Z,51.30
2019-04-28T08:11:37.947Z,51.20
2019-04-28T08:14:06.553Z,51.30
2019-04-28T08:16:35.004Z,51.00
2019-04-28T08:19:03.514Z,51.20
2019-04-28T08:21:31.971Z,51.30
2019-04-28T08:24:00.416Z,51.20
2019-04-28T08:26:28.865Z,51.20
2019-04-28T08:28:57.334Z,51.10
2019-04-28T08:31:27.481Z,51.00
2019-04-28T08:34:02.799Z,51.00
2019-04-28T08:36:31.545Z,50.90
2019-04-28T08:38:59.986Z,51.00
2019-04-28T08:41:28.666Z,51.00
2019-04-28T08:43:57.115Z,51.00
2019-04-28T08:46:25.569Z,51.10
2019-04-28T08:48:54.121Z,51.00
2019-04-28T08:51:22.569Z,51.00
2019-04-28T08:53:56.062Z,51.10
2019-04-28T08:56:24.730Z,51.30
2019-04-28T08:58:53.231Z,51.30
2019-04-28T09:01:21.676Z,51.20
2019-04-28T09:03:50.567Z,51.20
2019-04-28T09:06:18.993Z,51.20
2019-04-28T09:08:47.431Z,51.20
2019-04-28T09:11:16.367Z,51.20
2019-04-28T09:13:45.965Z,51.20
2019-04-28T09:16:14.419Z,51.20
2019-04-28T09:18:43.348Z,51.10
2019-04-28T09:21:11.784Z,51.10
2019-04-28T09:23:40.302Z,51.20
2019-04-28T09:26:08.962Z,51.10
2019-04-28T09:28:37.404Z,51.30
2019-04-28T09:31:06.330Z,51.20
2019-04-28T09:33:34.799Z,51.20
2019-04-28T09:36:03.227Z,51.20
2019-04-28T09:38:31.753Z,51.20
2019-04-28T09:41:00.316Z,51.20
2019-04-28T09:43:49.837Z,51.00
2019-04-28T09:46:19.322Z,51.10
2019-04-28T09:48:47.768Z,51.20
2019-04-28T09:51:16.204Z,51.20
2019-04-28T09:53:44.978Z,51.20
2019-04-28T09:56:13.419Z,51.20
2019-04-28T09:58:41.854Z,51.20
2019-04-28T10:01:10.981Z,51.20
2019-04-28T10:03:39.655Z,51.20
2019-04-28T10:06:08.130Z,51.20
2019-04-28T10:08:37.038Z,51.30
2019-04-28T10:11:08.570Z,51.20
2019-04-28T10:13:37.263Z,51.20
2019-04-28T10:16:06.374Z,51.20
2019-04-28T10:18:34.807Z,51.20
2019-04-28T10:21:03.304Z,51.20
2019-04-28T10:23:32.954Z,51.20
2019-04-28T10:26:01.464Z,51.30
2019-04-28T10:28:29.899Z,51.40
2019-04-28T10:30:58.435Z,51.40
2019-04-28T10:33:26.864Z,51.20
2019-04-28T10:35:55.363Z,51.20
2019-04-28T10:38:23.993Z,51.20
2019-04-28T10:40:56.502Z,51.10
2019-04-28T10:43:25.199Z,51.10
2019-04-28T10:45:53.854Z,51.10
2019-04-28T10:48:22.291Z,51.00
2019-04-28T10:50:50.716Z,51.00
2019-04-28T10:53:21.199Z,51.10
2019-04-28T10:55:49.632Z,51.10
2019-04-28T10:58:18.073Z,51.70
2019-04-28T11:00:46.715Z,51.20
2019-04-28T11:03:15.152Z,51.30
2019-04-28T11:05:44.463Z,51.10
2019-04-28T11:08:27.315Z,51.20
2019-04-28T11:10:56.802Z,51.20
2019-04-28T11:13:25.419Z,51.20
2019-04-28T11:15:54.031Z,51.20
2019-04-28T11:18:22.555Z,51.30
2019-04-28T11:20:50.991Z,51.30
2019-04-28T11:23:19.443Z,51.30
2019-04-28T11:25:48.018Z,51.30
2019-04-28T11:28:16.512Z,51.30
2019-04-28T11:30:45.094Z,51.40
2019-04-28T11:33:15.319Z,51.40
2019-04-28T11:35:45.527Z,51.40
2019-04-28T11:38:14.022Z,51.40
2019-04-28T11:40:44.660Z,51.40
2019-04-28T11:43:13.409Z,52.00
2019-04-28T11:45:42.011Z,51.40
2019-04-28T11:48:10.518Z,51.40
2019-04-28T11:50:38.978Z,51.40
2019-04-28T11:53:07.786Z,51.50
2019-04-28T11:55:36.218Z,51.60
2019-04-28T11:58:05.364Z,51.60
2019-04-28T12:00:35.706Z,51.70
2019-04-28T12:03:04.212Z,51.70
2019-04-28T12:05:38.463Z,51.60
2019-04-28T12:08:07.244Z,51.70
2019-04-28T12:10:50.328Z,51.70
2019-04-28T12:13:36.587Z,51.70
2019-04-28T12:16:06.734Z,51.70
2019-04-28T12:18:52.078Z,51.70
2019-04-28T12:21:20.571Z,51.50
2019-04-28T12:23:49.517Z,51.60
2019-04-28T12:26:18.159Z,51.70
2019-04-28T12:28:46.692Z,51.70
2019-04-28T12:31:15.148Z,51.60
2019-04-28T12:33:43.617Z,51.50
2019-04-28T12:36:12.055Z,51.70
2019-04-28T12:38:40.508Z,51.60
2019-04-28T12:41:10.293Z,51.60
2019-04-28T12:43:38.763Z,51.60
2019-04-28T12:46:07.201Z,51.60
2019-04-28T12:48:35.670Z,51.60
2019-04-28T12:51:04.189Z,51.40
2019-04-28T12:53:32.708Z,51.50
2019-04-28T12:56:01.424Z,51.60
2019-04-28T12:58:29.931Z,51.50
2019-04-28T13:01:16.359Z,51.40
2019-04-28T13:03:49.122Z,51.50
2019-04-28T13:06:19.211Z,51.60
2019-04-28T13:08:47.712Z,51.60
2019-04-28T13:11:17.259Z,51.50
2019-04-28T13:13:47.075Z,51.50
2019-04-28T13:16:15.901Z,51.30
2019-04-28T13:18:44.332Z,51.20
2019-04-28T13:21:12.846Z,51.30
2019-04-28T13:23:42.319Z,51.20
2019-04-28T13:26:10.767Z,51.40
2019-04-28T13:28:39.202Z,51.40
2019-04-28T13:31:07.738Z,51.40
2019-04-28T13:33:36.282Z,51.50
2019-04-28T13:36:14.468Z,51.70
2019-04-28T13:38:35.232Z,51.80
2019-04-28T13:41:03.965Z,51.80
2019-04-28T13:43:32.933Z,51.80
2019-04-28T13:46:01.534Z,51.90
2019-04-28T13:48:30.135Z,51.60
2019-04-28T13:50:58.589Z,51.70
2019-04-28T13:53:27.504Z,51.70
2019-04-28T13:55:57.635Z,51.80
2019-04-28T13:58:33.809Z,51.70
2019-04-28T14:01:04.016Z,51.70
2019-04-28T14:03:43.841Z,51.60
2019-04-28T14:06:27.594Z,51.70
2019-04-28T14:08:46.748Z,51.80
2019-04-28T14:11:15.278Z,51.90
2019-04-28T14:13:43.928Z,51.90
2019-04-28T14:16:12.412Z,51.80
2019-04-28T14:18:41.030Z,51.70
2019-04-28T14:21:09.457Z,51.60
2019-04-28T14:23:37.906Z,51.80
2019-04-28T14:26:06.938Z,51.80
2019-04-28T14:28:35.426Z,51.70
2019-04-28T14:31:03.965Z,51.80
2019-04-28T14:33:33.433Z,51.90
2019-04-28T14:36:02.012Z,51.90
2019-04-28T14:38:30.448Z,52.10
2019-04-28T14:40:59.148Z,52.00
2019-04-28T14:43:28.546Z,52.10
2019-04-28T14:45:57.059Z,52.10
2019-04-28T14:48:25.565Z,52.00
2019-04-28T14:50:54.074Z,51.70
2019-04-28T14:53:22.621Z,51.80
2019-04-28T14:55:51.274Z,51.90
2019-04-28T14:58:19.717Z,52.00
2019-04-28T15:01:08.160Z,51.90
2019-04-28T15:04:08.295Z,52.00
2019-04-28T15:06:38.609Z,52.00
2019-04-28T15:09:33.679Z,52.10
2019-04-28T15:12:29.068Z,52.00
2019-04-28T15:15:00.384Z,51.80
2019-04-28T15:17:27.775Z,52.00
2019-04-28T15:20:01.192Z,51.90
2019-04-28T15:26:05.716Z,51.90
2019-04-28T15:29:05.463Z,51.80
2019-04-28T15:31:35.405Z,51.80
2019-04-28T15:34:03.914Z,51.80
2019-04-28T15:36:32.350Z,52.10
2019-04-28T15:39:00.858Z,51.90
2019-04-28T15:41:29.390Z,51.90
2019-04-28T15:43:57.840Z,51.80
2019-04-28T15:46:26.404Z,51.80
2019-04-28T15:48:54.850Z,51.70
2019-04-28T15:51:23.300Z,51.80
2019-04-28T15:53:52.239Z,51.80
2019-04-28T15:56:22.328Z,51.90
2019-04-28T15:58:50.779Z,51.90
2019-04-28T16:01:19.239Z,52.10
2019-04-28T16:03:48.057Z,52.00
2019-04-28T16:06:16.506Z,52.00
2019-04-28T16:08:45.013Z,52.10
2019-04-28T16:11:14.460Z,52.10
2019-04-28T16:13:43.955Z,52.00
2019-04-28T16:16:12.878Z,52.00
2019-04-28T16:18:41.351Z,52.50
2019-04-28T16:21:09.794Z,51.90
2019-04-28T16:23:38.398Z,52.00
2019-04-28T16:26:06.845Z,52.10
2019-04-28T16:28:35.279Z,52.10
2019-04-28T16:31:03.808Z,52.10
2019-04-28T16:33:32.261Z,52.30
2019-04-28T16:36:00.707Z,52.40
2019-04-28T16:38:29.379Z,52.60
2019-04-28T16:40:59.583Z,52.50
2019-04-28T16:43:38.063Z,52.40
2019-04-28T16:46:06.508Z,52.40
2019-04-28T16:48:34.953Z,52.40
2019-04-28T16:51:03.685Z,52.10
2019-04-28T16:53:35.225Z,52.50
2019-04-28T16:56:08.441Z,52.20
2019-04-28T16:58:47.327Z,52.30
2019-04-28T17:01:26.419Z,52.30
2019-04-28T17:03:54.851Z,52.30
2019-04-28T17:06:23.330Z,52.60
2019-04-28T17:08:51.842Z,52.50
2019-04-28T17:11:22.261Z,52.60
2019-04-28T17:13:53.882Z,52.60
2019-04-28T17:16:21.657Z,52.50
2019-04-28T17:18:50.099Z,52.30
2019-04-28T17:21:18.613Z,52.20
2019-04-28T17:23:47.407Z,52.10
2019-04-28T17:26:15.850Z,52.10
2019-04-28T17:28:44.293Z,52.00
2019-04-28T17:31:13.286Z,52.10
2019-04-28T17:33:42.922Z,52.10
2019-04-28T17:36:11.373Z,52.20
2019-04-28T17:38:39.984Z,52.20
2019-04-28T17:41:08.614Z,52.20
2019-04-28T17:43:37.238Z,52.30
2019-04-28T17:46:05.821Z,52.30
2019-04-28T17:48:38.763Z,52.30
2019-04-28T17:51:07.286Z,52.10
2019-04-28T17:53:37.315Z,52.10
2019-04-28T17:56:05.832Z,52.10
2019-04-28T17:58:34.276Z,52.20
2019-04-28T18:01:16.771Z,52.20
2019-04-28T18:03:50.081Z,52.20
2019-04-28T18:06:20.238Z,52.40
2019-04-28T18:08:49.103Z,52.50
2019-04-28T18:11:18.049Z,52.50
2019-04-28T18:13:46.488Z,52.50
2019-04-28T18:16:32.650Z,52.50
2019-04-28T18:19:02.725Z,52.40
2019-04-28T18:21:31.182Z,52.30
2019-04-28T18:23:59.740Z,52.40
2019-04-28T18:26:28.174Z,52.40
2019-04-28T18:28:56.630Z,52.40
2019-04-28T18:31:43.330Z,52.40
2019-04-28T18:34:13.387Z,52.50
2019-04-28T18:37:01.825Z,52.60
2019-04-28T18:39:48.918Z,52.60
2019-04-28T18:42:25.209Z,52.70
2019-04-28T18:44:53.699Z,52.60
2019-04-28T18:53:55.745Z,52.40
2019-04-28T18:56:33.760Z,52.40
2019-04-28T18:59:40.505Z,52.50
2019-04-28T19:01:41.750Z,52.60
2019-04-28T19:04:10.409Z,52.60
2019-04-28T19:06:40.900Z,52.60
2019-04-28T19:09:27.381Z,52.60
2019-04-28T19:12:03.681Z,52.70
2019-04-28T19:14:33.953Z,52.60
2019-04-28T19:17:08.633Z,52.60
2019-04-28T19:19:43.210Z,52.40
2019-04-28T19:22:17.882Z,52.50
2019-04-28T19:24:46.387Z,52.60
2019-04-28T19:27:19.244Z,52.60
2019-04-28T19:29:47.814Z,52.60
2019-04-28T19:32:26.640Z,52.70
2019-04-28T19:34:55.003Z,52.80
2019-04-28T19:37:23.476Z,52.70
2019-04-28T19:39:52.024Z,52.40
2019-04-28T19:42:21.120Z,52.50
2019-04-28T19:44:55.601Z,52.40
2019-04-28T19:47:24.078Z,52.40
2019-04-28T19:49:54.160Z,52.50
2019-04-28T19:52:34.831Z,52.50
2019-04-28T19:55:11.604Z,52.60
2019-04-28T19:57:48.239Z,52.70
2019-04-28T20:00:28.614Z,52.70
2019-04-28T20:02:57.363Z,52.70
2019-04-28T20:05:25.809Z,52.50
2019-04-28T20:07:54.389Z,52.40
2019-04-28T20:10:22.997Z,52.70
2019-04-28T20:12:51.623Z,52.70
2019-04-28T20:15:20.299Z,52.50
2019-04-28T20:17:48.741Z,52.50
2019-04-28T20:20:17.324Z,52.40
2019-04-28T20:22:58.068Z,52.70
2019-04-28T20:25:26.519Z,52.40
2019-04-28T20:27:54.949Z,52.30
2019-04-28T20:30:23.500Z,52.30
2019-04-28T20:32:52.190Z,52.40
2019-04-28T20:35:22.267Z,52.30
2019-04-28T20:38:01.020Z,52.30
2019-04-28T20:40:31.290Z,52.30
2019-04-28T20:43:06.412Z,52.30
2019-04-28T20:45:34.854Z,52.30
2019-04-28T20:48:03.306Z,52.20
2019-04-28T20:50:31.965Z,52.30
2019-04-28T20:53:00.437Z,52.20
2019-04-28T20:55:28.878Z,52.10
2019-04-28T20:57:57.830Z,52.20
2019-04-28T21:00:26.272Z,52.20
2019-04-28T21:02:56.824Z,52.10
2019-04-28T21:05:25.941Z,52.10
2019-04-28T21:07:54.380Z,52.10
2019-04-28T21:10:22.882Z,52.10
2019-04-28T21:12:53.718Z,52.20
2019-04-28T21:15:22.173Z,52.30
2019-04-28T21:17:50.611Z,52.20
2019-04-28T21:20:19.135Z,52.30
2019-04-28T21:22:47.586Z,52.20
2019-04-28T21:25:16.057Z,52.20
2019-04-28T22:42:42.094Z,52.10
2019-04-28T22:51:56.693Z,52.30
2019-04-28T23:08:20.538Z,52.20
2019-04-28T23:10:48.962Z,52.20
2019-04-28T23:13:17.484Z,52.20
2019-04-28T23:15:46.543Z,52.10
2019-04-28T23:18:14.971Z,52.30
2019-04-28T23:20:45.051Z,52.10
2019-04-28T23:23:13.562Z,52.00
2019-04-28T23:25:42.053Z,52.00
2019-04-28T23:28:10.490Z,52.00
2019-04-28T23:30:46.397Z,52.00
2019-04-28T23:33:14.832Z,52.00
2019-04-28T23:35:43.265Z,51.90
2019-04-28T23:38:11.860Z,52.00
2019-04-28T23:40:41.962Z,52.10
2019-04-28T23:43:12.032Z,52.00
2019-04-28T23:45:40.691Z,52.00
2019-04-28T23:48:09.143Z,52.00
2019-04-28T23:50:39.214Z,52.00
2019-04-28T23:53:09.353Z,51.90
2019-04-28T23:55:37.811Z,51.90
2019-04-28T23:58:06.250Z,52.00
